Time;durP1;ratioP1;P1;durP2;ratioP2;P2;SDS_P1;SDS_P2;PMS_P1;PMS_P2;Temp;Humidity;BMP_temperature;BMP_pressure;BME280_temperature;BME280_humidity;BME280_pressure;Samples;Min_cycle;Max_cycle;Signal;HPM_P1;HPM_P2
2021/07/14 00:01:48;;;;;;;6.00;5.00;;;20.60;70.70;;;;;;4931849;29;20027;-74
2021/07/14 00:04:14;;;;;;;6.20;5.60;;;20.60;70.80;;;;;;4931808;29;20055;-75
2021/07/14 00:06:40;;;;;;;6.30;5.70;;;20.50;70.70;;;;;;4931186;29;20086;-74
2021/07/14 00:09:09;;;;;;;6.13;5.47;;;20.50;70.70;;;;;;4920834;29;20139;-78
2021/07/14 00:11:39;;;;;;;6.60;5.25;;;20.40;70.60;;;;;;4913052;29;20404;-74
2021/07/14 00:22:26;;;;;;;6.43;5.47;;;20.30;70.60;;;;;;4913382;29;20035;-75
2021/07/14 00:24:52;;;;;;;5.63;5.13;;;20.30;70.70;;;;;;4929214;29;20027;-73
2021/07/14 00:27:19;;;;;;;6.35;5.43;;;20.20;70.60;;;;;;4931926;29;20039;-74
2021/07/14 00:29:55;;;;;;;6.85;5.32;;;20.20;70.70;;;;;;4946836;29;20044;-75
2021/07/14 00:32:22;;;;;;;5.90;5.28;;;20.20;70.80;;;;;;4931705;29;20035;-74
2021/07/14 00:34:48;;;;;;;5.78;5.13;;;20.10;70.70;;;;;;4930817;29;20419;-75
2021/07/14 00:37:14;;;;;;;5.45;4.53;;;20.10;70.70;;;;;;4930216;29;20167;-78
2021/07/14 00:39:42;;;;;;;6.13;5.53;;;20.00;70.60;;;;;;4930331;29;20043;-76
2021/07/14 00:42:09;;;;;;;6.13;5.53;;;20.00;70.70;;;;;;4930617;29;20039;-75
2021/07/14 00:44:35;;;;;;;5.82;5.00;;;20.00;70.80;;;;;;4931428;29;20514;-75
2021/07/14 00:47:04;;;;;;;5.38;4.93;;;20.00;70.90;;;;;;4929175;29;20126;-76
2021/07/14 00:49:31;;;;;;;6.35;5.70;;;19.90;70.80;;;;;;4914479;29;20094;-76
2021/07/14 00:51:57;;;;;;;6.20;5.40;;;19.90;70.80;;;;;;4912495;29;20471;-74
2021/07/14 00:54:23;;;;;;;5.38;4.88;;;19.90;70.90;;;;;;4924823;29;20270;-74
2021/07/14 00:56:50;;;;;;;5.85;5.13;;;19.90;70.90;;;;;;4893930;29;20177;-74
2021/07/14 00:59:16;;;;;;;5.40;4.82;;;19.80;70.80;;;;;;4898585;29;20059;-74
2021/07/14 01:01:48;;;;;;;5.75;5.15;;;19.80;70.90;;;;;;4930333;29;20031;-74
2021/07/14 01:04:29;;;;;;;7.38;5.45;;;19.70;70.80;;;;;;4913091;29;20080;-76
2021/07/14 01:07:28;;;;;;;5.57;5.07;;;19.70;70.80;;;;;;4912453;29;20036;-74
2021/07/14 01:10:05;;;;;;;6.68;4.70;;;19.70;71.00;;;;;;4918948;29;20103;-75
2021/07/14 01:12:44;;;;;;;6.22;5.72;;;19.60;71.30;;;;;;4930659;29;20079;-74
2021/07/14 01:15:13;;;;;;;5.57;4.60;;;19.60;71.00;;;;;;4931676;29;20031;-74
2021/07/14 01:18:15;;;;;;;5.45;4.95;;;19.50;70.80;;;;;;4930684;29;20036;-74
2021/07/14 01:20:54;;;;;;;5.30;4.63;;;19.50;70.90;;;;;;4932973;29;20118;-74
2021/07/14 01:23:45;;;;;;;5.05;4.65;;;19.50;71.00;;;;;;4931032;29;20040;-75
2021/07/14 01:27:01;;;;;;;5.93;4.47;;;19.40;70.80;;;;;;4931071;29;20401;-73
2021/07/14 01:29:29;;;;;;;5.85;5.25;;;19.40;70.90;;;;;;4922443;29;20404;-76
2021/07/14 01:31:56;;;;;;;5.28;4.75;;;19.30;70.70;;;;;;4912569;29;20067;-74
2021/07/14 01:34:24;;;;;;;4.85;4.10;;;19.30;70.80;;;;;;4913703;29;20079;-74
2021/07/14 01:36:53;;;;;;;6.22;4.45;;;19.30;70.90;;;;;;4913402;29;20044;-74
2021/07/14 01:39:24;;;;;;;6.78;4.30;;;19.20;70.80;;;;;;4923379;29;20467;-74
2021/07/14 01:41:52;;;;;;;6.03;4.32;;;19.20;70.80;;;;;;4918545;29;20047;-74
2021/07/14 01:44:22;;;;;;;5.22;4.72;;;19.20;71.00;;;;;;4909588;29;20826;-74
2021/07/14 01:46:48;;;;;;;6.75;4.72;;;19.20;71.50;;;;;;4907106;29;20092;-75
2021/07/14 01:49:18;;;;;;;7.15;4.68;;;19.10;70.90;;;;;;4915975;29;20138;-76
2021/07/14 01:51:50;;;;;;;6.28;4.68;;;19.10;71.00;;;;;;4917177;29;20062;-75
2021/07/14 01:54:22;;;;;;;5.28;4.70;;;19.10;71.00;;;;;;4916182;29;20483;-74
2021/07/14 01:56:49;;;;;;;5.78;4.35;;;19.10;71.00;;;;;;4917036;29;20028;-76
2021/07/14 01:59:17;;;;;;;5.25;4.75;;;19.00;70.80;;;;;;4916466;29;20028;-76
2021/07/14 02:01:44;;;;;;;5.28;4.78;;;19.00;70.90;;;;;;4915931;29;20411;-76
2021/07/14 02:04:30;;;;;;;5.45;4.93;;;19.00;70.90;;;;;;4915840;29;20035;-74
2021/07/14 02:07:09;;;;;;;5.70;5.20;;;18.90;70.80;;;;;;4930654;29;20114;-74
2021/07/14 02:09:37;;;;;;;4.93;4.47;;;18.90;70.90;;;;;;4915681;29;20044;-74
2021/07/14 02:12:07;;;;;;;5.38;4.88;;;18.80;70.70;;;;;;4915664;29;20032;-74
2021/07/14 02:14:45;;;;;;;4.55;4.15;;;18.80;70.90;;;;;;4915703;29;20799;-74
2021/07/14 02:17:15;;;;;;;7.07;4.63;;;18.80;71.00;;;;;;4914616;29;20047;-75
2021/07/14 02:20:06;;;;;;;4.95;4.45;;;18.80;71.00;;;;;;4915806;29;20028;-75
2021/07/14 02:22:32;;;;;;;4.97;4.53;;;18.70;71.00;;;;;;4915053;29;20076;-78
2021/07/14 02:24:59;;;;;;;6.05;4.78;;;18.70;71.00;;;;;;4914175;29;20488;-74
2021/07/14 02:27:25;;;;;;;4.53;4.03;;;18.70;71.10;;;;;;4915460;29;20134;-74
2021/07/14 02:29:51;;;;;;;5.22;4.70;;;18.70;71.10;;;;;;4915742;29;20080;-74
2021/07/14 02:32:20;;;;;;;4.70;3.85;;;18.60;70.90;;;;;;4915018;29;20028;-74
2021/07/14 02:34:48;;;;;;;7.30;4.22;;;18.60;71.00;;;;;;4914400;29;20043;-74
2021/07/14 02:37:26;;;;;;;4.82;4.22;;;18.60;71.00;;;;;;4914876;29;20435;-74
2021/07/14 02:39:57;;;;;;;4.90;3.90;;;18.50;71.00;;;;;;4915406;29;20488;-74
2021/07/14 02:42:31;;;;;;;4.32;4.03;;;18.50;71.00;;;;;;4914657;29;20028;-75
2021/07/14 02:45:00;;;;;;;5.28;4.28;;;18.40;70.80;;;;;;4915241;29;20032;-75
2021/07/14 02:47:29;;;;;;;4.25;3.85;;;18.50;71.00;;;;;;4914173;29;20515;-74
2021/07/14 02:49:57;;;;;;;4.43;4.03;;;18.40;70.90;;;;;;4915238;29;20043;-74
2021/07/14 02:52:27;;;;;;;7.28;4.95;;;18.40;70.90;;;;;;4914790;29;20060;-74
2021/07/14 02:54:56;;;;;;;4.88;4.40;;;18.30;70.80;;;;;;4914803;29;20028;-74
2021/07/14 02:57:26;;;;;;;5.53;4.50;;;18.30;71.40;;;;;;4915255;29;20518;-75
2021/07/14 02:59:54;;;;;;;4.68;4.28;;;18.30;70.90;;;;;;4912996;29;20424;-75
2021/07/14 03:02:21;;;;;;;5.15;4.75;;;18.20;70.80;;;;;;4929869;29;20051;-74
2021/07/14 03:04:50;;;;;;;4.75;4.28;;;18.20;70.80;;;;;;4914943;29;20028;-74
2021/07/14 03:07:21;;;;;;;4.65;4.25;;;18.20;70.90;;;;;;4914928;29;20381;-74
2021/07/14 03:09:47;;;;;;;5.55;4.60;;;18.20;70.90;;;;;;4914715;29;20465;-75
2021/07/14 03:12:17;;;;;;;5.00;4.47;;;18.10;70.80;;;;;;4929246;29;20452;-74
2021/07/14 03:14:56;;;;;;;6.03;4.47;;;18.10;70.90;;;;;;4914653;29;20127;-74
2021/07/14 03:17:23;;;;;;;4.05;3.60;;;18.10;71.00;;;;;;4914510;29;20068;-74
2021/07/14 03:19:52;;;;;;;4.75;4.35;;;18.10;71.00;;;;;;4914843;29;20033;-75
2021/07/14 03:22:22;;;;;;;4.85;4.35;;;18.00;70.90;;;;;;4914493;29;20206;-74
2021/07/14 03:24:48;;;;;;;4.78;4.35;;;18.00;71.00;;;;;;4914407;29;20032;-74
2021/07/14 03:27:15;;;;;;;5.03;4.53;;;18.00;71.00;;;;;;4915261;29;20671;-75
2021/07/14 03:29:43;;;;;;;5.35;4.45;;;17.90;70.80;;;;;;4913318;29;20422;-74
2021/07/14 03:32:10;;;;;;;4.50;4.10;;;17.90;70.90;;;;;;4929423;29;20040;-74
2021/07/14 03:34:37;;;;;;;4.35;4.00;;;17.90;70.90;;;;;;4914639;29;20039;-74
2021/07/14 03:37:06;;;;;;;4.60;4.07;;;17.90;71.00;;;;;;4914769;29;20046;-74
2021/07/14 03:39:40;;;;;;;4.97;3.97;;;17.90;71.00;;;;;;4910262;29;20468;-73
2021/07/14 03:42:10;;;;;;;7.00;3.80;;;17.90;71.10;;;;;;4914712;29;20224;-74
2021/07/14 03:44:38;;;;;;;4.40;4.10;;;17.80;70.90;;;;;;4914602;29;20099;-74
2021/07/14 03:47:05;;;;;;;5.22;4.22;;;17.80;71.00;;;;;;4913405;29;20484;-77
2021/07/14 03:49:32;;;;;;;4.90;4.45;;;17.80;71.00;;;;;;4913427;29;20095;-73
2021/07/14 03:51:59;;;;;;;5.40;4.38;;;17.70;70.80;;;;;;4914143;29;20572;-75
2021/07/14 03:54:27;;;;;;;4.88;4.47;;;17.70;70.80;;;;;;4914207;29;20412;-74
2021/07/14 03:56:55;;;;;;;5.60;3.65;;;17.70;70.90;;;;;;4914261;29;20028;-74
2021/07/14 03:59:22;;;;;;;4.57;4.18;;;17.70;71.00;;;;;;4913533;29;20032;-74
2021/07/14 04:01:49;;;;;;;4.43;3.95;;;17.70;71.00;;;;;;4914512;29;20039;-74
2021/07/14 04:04:15;;;;;;;4.60;4.20;;;17.60;71.40;;;;;;4914092;29;20128;-73
2021/07/14 04:06:45;;;;;;;4.93;4.43;;;17.60;70.80;;;;;;4914494;29;20043;-74
2021/07/14 04:09:18;;;;;;;5.93;4.35;;;17.60;71.00;;;;;;4914612;29;20373;-73
2021/07/14 04:11:50;;;;;;;4.50;4.10;;;17.50;70.80;;;;;;4914484;29;20032;-74
2021/07/14 04:14:16;;;;;;;5.05;4.55;;;17.50;70.80;;;;;;4917932;29;20039;-75
2021/07/14 04:16:42;;;;;;;4.35;3.95;;;17.50;70.80;;;;;;4916329;29;20392;-74
2021/07/14 04:19:08;;;;;;;3.95;3.60;;;17.50;70.90;;;;;;4917829;29;20480;-74
2021/07/14 04:21:36;;;;;;;7.07;4.25;;;17.40;70.80;;;;;;4916267;29;20489;-75
2021/07/14 04:24:03;;;;;;;4.47;4.07;;;17.40;70.80;;;;;;4917792;29;20403;-74
2021/07/14 04:26:29;;;;;;;9.30;4.32;;;17.40;71.30;;;;;;4917938;29;20690;-74
2021/07/14 04:28:55;;;;;;;5.68;4.35;;;17.40;70.90;;;;;;4916054;29;20159;-74
2021/07/14 04:31:21;;;;;;;4.57;4.18;;;17.40;70.90;;;;;;4916378;29;20130;-74
2021/07/14 04:33:47;;;;;;;5.40;4.85;;;17.30;70.70;;;;;;4917743;29;20298;-73
2021/07/14 04:36:12;;;;;;;4.90;4.50;;;17.30;70.80;;;;;;4917381;29;20032;-74
2021/07/14 04:38:41;;;;;;;4.22;3.83;;;17.30;70.80;;;;;;4917479;29;20035;-74
2021/07/14 04:41:07;;;;;;;4.40;3.80;;;17.30;70.80;;;;;;4917143;29;20811;-74
2021/07/14 04:43:33;;;;;;;3.97;3.67;;;17.20;70.70;;;;;;4916339;29;20028;-74
2021/07/14 04:45:59;;;;;;;3.97;3.58;;;17.20;70.70;;;;;;4917237;29;20511;-74
2021/07/14 04:48:26;;;;;;;4.20;3.80;;;17.20;70.70;;;;;;4914330;29;20195;-74
2021/07/14 04:50:52;;;;;;;4.93;3.67;;;17.20;70.80;;;;;;4913668;29;20595;-74
2021/07/14 04:53:18;;;;;;;4.70;4.25;;;17.20;70.80;;;;;;4914264;29;20476;-77
2021/07/14 04:55:44;;;;;;;4.30;3.75;;;17.20;70.80;;;;;;4914434;29;20075;-75
2021/07/14 04:58:11;;;;;;;3.80;3.50;;;17.20;70.80;;;;;;4920938;29;20038;-73
2021/07/14 05:00:37;;;;;;;3.80;3.50;;;17.10;70.70;;;;;;4932166;29;20068;-76
2021/07/14 05:03:03;;;;;;;5.10;3.72;;;17.10;70.70;;;;;;4925117;29;20439;-77
2021/07/14 05:05:29;;;;;;;4.45;3.22;;;17.10;70.70;;;;;;4911090;29;20024;-73
2021/07/14 05:07:55;;;;;;;4.18;3.33;;;17.10;70.70;;;;;;4917801;29;20036;-74
2021/07/14 05:10:24;;;;;;;4.32;3.78;;;17.10;70.80;;;;;;4929854;29;20036;-74
2021/07/14 05:12:51;;;;;;;5.47;3.80;;;17.10;70.80;;;;;;4931305;29;20039;-74
2021/07/14 05:15:17;;;;;;;3.80;3.50;;;17.00;70.60;;;;;;4945909;29;20540;-75
2021/07/14 05:17:43;;;;;;;4.05;3.42;;;17.10;70.80;;;;;;4921359;29;20668;-75
2021/07/14 05:20:10;;;;;;;4.05;3.60;;;17.10;70.80;;;;;;4930713;29;20036;-77
2021/07/14 05:22:37;;;;;;;4.63;4.00;;;17.10;70.80;;;;;;4930932;29;20036;-76
2021/07/14 05:25:05;;;;;;;3.22;2.92;;;17.00;70.70;;;;;;4945236;29;20122;-74
2021/07/14 05:27:31;;;;;;;4.43;3.63;;;17.10;70.80;;;;;;4931483;29;20418;-77
2021/07/14 05:29:57;;;;;;;5.18;3.40;;;17.10;70.90;;;;;;4931542;29;20040;-76
2021/07/14 05:32:23;;;;;;;4.88;3.60;;;17.00;70.70;;;;;;4931133;29;20040;-76
2021/07/14 05:34:49;;;;;;;3.90;3.42;;;17.00;70.70;;;;;;4932064;29;20483;-77
2021/07/14 05:37:16;;;;;;;3.25;2.95;;;17.10;70.90;;;;;;4929859;29;20036;-77
2021/07/14 05:39:42;;;;;;;4.22;3.83;;;17.10;70.90;;;;;;4893351;29;20037;-75
2021/07/14 05:42:08;;;;;;;4.50;4.07;;;17.10;71.00;;;;;;4897491;29;20445;-76
2021/07/14 05:44:34;;;;;;;5.53;3.78;;;17.00;71.10;;;;;;4945572;29;20122;-77
2021/07/14 05:47:00;;;;;;;4.03;3.70;;;17.10;70.90;;;;;;4929369;29;20035;-76
2021/07/14 05:49:26;;;;;;;4.10;3.80;;;17.10;71.00;;;;;;4945425;29;20050;-75
2021/07/14 05:51:52;;;;;;;4.20;3.80;;;17.10;71.00;;;;;;4929945;29;20047;-75
2021/07/14 05:54:18;;;;;;;4.20;3.65;;;17.10;71.00;;;;;;4929711;29;20035;-77
2021/07/14 05:56:44;;;;;;;5.15;4.50;;;17.10;71.00;;;;;;4930897;29;20031;-76
2021/07/14 05:59:10;;;;;;;4.28;3.92;;;17.10;71.00;;;;;;4930597;29;20059;-76
2021/07/14 06:01:37;;;;;;;5.03;4.35;;;17.20;71.20;;;;;;4929597;29;20960;-75
2021/07/14 06:04:03;;;;;;;4.50;4.10;;;17.20;71.30;;;;;;4910772;29;20055;-78
2021/07/14 06:06:30;;;;;;;4.50;4.15;;;17.30;71.50;;;;;;4911110;29;20028;-79
2021/07/14 06:08:56;;;;;;;4.70;4.28;;;17.30;71.50;;;;;;4924387;29;20038;-77
2021/07/14 06:11:22;;;;;;;4.25;3.92;;;17.40;71.60;;;;;;4926610;29;20040;-77
2021/07/14 06:13:49;;;;;;;5.15;4.00;;;17.40;71.60;;;;;;4927086;29;20040;-77
2021/07/14 06:16:15;;;;;;;4.70;4.18;;;17.50;71.80;;;;;;4944785;29;20028;-76
2021/07/14 06:18:41;;;;;;;5.75;4.05;;;17.60;72.00;;;;;;4927608;29;20035;-76
2021/07/14 06:21:07;;;;;;;5.07;4.15;;;17.70;72.10;;;;;;4928818;29;20040;-74
2021/07/14 06:23:33;;;;;;;4.50;4.03;;;17.80;72.30;;;;;;4929857;29;20032;-74
2021/07/14 06:26:00;;;;;;;4.45;4.05;;;17.90;72.50;;;;;;4916750;29;20036;-75
2021/07/14 06:28:26;;;;;;;4.60;4.20;;;18.00;72.70;;;;;;4914070;29;20058;-77
2021/07/14 06:30:52;;;;;;;4.40;4.00;;;18.20;73.00;;;;;;4910845;29;20083;-78
2021/07/14 06:33:18;;;;;;;5.45;4.40;;;18.30;73.20;;;;;;4906901;29;20024;-74
2021/07/14 06:35:44;;;;;;;5.43;4.88;;;18.50;73.50;;;;;;4906753;29;20043;-76
2021/07/14 06:38:10;;;;;;;5.53;5.03;;;18.70;73.90;;;;;;4914288;29;20028;-78
2021/07/14 06:40:37;;;;;;;4.95;4.55;;;18.80;74.20;;;;;;4910826;29;20385;-75
2021/07/14 06:43:08;;;;;;;6.53;4.32;;;19.10;74.80;;;;;;4919394;29;20040;-75
2021/07/14 06:45:36;;;;;;;4.85;4.45;;;19.40;75.20;;;;;;4927751;29;20395;-76
2021/07/14 06:48:02;;;;;;;5.03;4.53;;;19.60;75.30;;;;;;4927347;29;20325;-77
2021/07/14 06:50:28;;;;;;;5.20;4.70;;;19.90;75.70;;;;;;4928849;29;20106;-75
2021/07/14 06:52:54;;;;;;;6.63;4.93;;;20.20;76.00;;;;;;4929716;29;20031;-75
2021/07/14 06:55:20;;;;;;;5.38;4.60;;;20.40;76.20;;;;;;4943828;29;20071;-75
2021/07/14 06:57:46;;;;;;;5.15;4.70;;;20.80;76.60;;;;;;4924559;29;20040;-75
2021/07/14 07:00:13;;;;;;;4.35;3.95;;;21.10;76.70;;;;;;4910628;29;20042;-73
2021/07/14 07:02:40;;;;;;;4.65;4.25;;;21.50;76.90;;;;;;4916523;29;20028;-77
2021/07/14 07:05:07;;;;;;;5.00;3.90;;;21.90;77.10;;;;;;4944151;29;20036;-75
2021/07/14 07:07:33;;;;;;;5.03;4.47;;;22.20;76.90;;;;;;4928715;29;20074;-76
2021/07/14 07:10:00;;;;;;;5.47;4.50;;;22.60;77.10;;;;;;4928025;29;20043;-76
2021/07/14 07:12:27;;;;;;;8.23;4.40;;;22.90;77.00;;;;;;4928952;29;20055;-75
2021/07/14 07:14:54;;;;;;;5.03;4.18;;;23.30;77.00;;;;;;4928885;29;20032;-75
2021/07/14 07:17:23;;;;;;;4.55;4.15;;;23.70;76.90;;;;;;4907271;29;20039;-76
2021/07/14 07:19:49;;;;;;;4.85;3.80;;;24.10;76.90;;;;;;4928879;29;20258;-75
2021/07/14 07:22:15;;;;;;;3.85;3.50;;;24.40;76.60;;;;;;4928697;29;20032;-74
2021/07/14 07:24:41;;;;;;;4.20;3.80;;;24.80;76.50;;;;;;4928992;29;20094;-75
2021/07/14 07:27:08;;;;;;;3.90;3.55;;;25.10;76.10;;;;;;4929151;29;20027;-76
2021/07/14 07:29:38;;;;;;;4.25;3.78;;;25.50;75.40;;;;;;4927098;29;20032;-75
2021/07/14 07:32:06;;;;;;;4.25;3.55;;;25.80;74.60;;;;;;4925514;29;20495;-75
2021/07/14 07:34:32;;;;;;;3.55;3.25;;;26.20;73.90;;;;;;4928894;29;20032;-77
2021/07/14 07:37:00;;;;;;;3.60;3.30;;;26.50;73.20;;;;;;4927640;29;20062;-76
2021/07/14 07:39:27;;;;;;;3.35;3.13;;;26.90;72.60;;;;;;4918178;29;20119;-77
2021/07/14 07:41:53;;;;;;;3.47;3.03;;;27.20;71.80;;;;;;4908723;29;20111;-78
2021/07/14 07:44:20;;;;;;;4.07;3.67;;;27.50;71.00;;;;;;4890021;29;20043;-76
2021/07/14 07:46:46;;;;;;;3.67;3.30;;;27.80;70.30;;;;;;4906661;29;20409;-76
2021/07/14 07:49:12;;;;;;;2.90;2.60;;;28.20;69.60;;;;;;4923267;29;20483;-75
2021/07/14 07:51:38;;;;;;;3.22;2.92;;;28.50;68.90;;;;;;4932164;29;20106;-74
2021/07/14 07:54:05;;;;;;;3.45;3.15;;;28.80;68.00;;;;;;4932307;29;20031;-75
2021/07/14 07:56:33;;;;;;;3.50;2.90;;;29.20;67.40;;;;;;4932297;29;20036;-75
2021/07/14 07:59:00;;;;;;;3.05;2.80;;;29.50;66.70;;;;;;4931551;29;20035;-76
2021/07/14 08:01:27;;;;;;;4.18;2.92;;;29.80;65.90;;;;;;4932427;29;20047;-76
2021/07/14 08:03:53;;;;;;;3.30;3.00;;;30.10;65.10;;;;;;4932176;29;20063;-75
2021/07/14 08:06:19;;;;;;;3.03;2.72;;;30.40;64.40;;;;;;4932056;29;20024;-74
2021/07/14 08:08:45;;;;;;;4.22;3.20;;;30.70;63.60;;;;;;4930970;29;20032;-77
2021/07/14 08:11:11;;;;;;;2.72;2.53;;;31.00;62.90;;;;;;4931836;29;20095;-74
2021/07/14 08:13:37;;;;;;;3.05;2.75;;;31.30;62.30;;;;;;4918056;29;20054;-76
2021/07/14 08:16:04;;;;;;;2.42;2.22;;;31.60;61.60;;;;;;4910202;29;20431;-75
2021/07/14 08:18:30;;;;;;;2.75;2.30;;;31.90;60.80;;;;;;4914317;29;20484;-74
2021/07/14 08:20:57;;;;;;;3.05;2.75;;;32.20;60.10;;;;;;4912076;29;20099;-75
2021/07/14 08:23:24;;;;;;;2.60;2.38;;;32.50;59.30;;;;;;4924633;29;20032;-76
2021/07/14 08:25:51;;;;;;;2.85;2.55;;;32.80;58.50;;;;;;4932140;29;20078;-74
2021/07/14 08:28:21;;;;;;;2.53;2.33;;;33.10;57.80;;;;;;4929732;29;20031;-75
2021/07/14 08:30:48;;;;;;;2.35;2.10;;;33.40;57.10;;;;;;4930484;29;20087;-76
2021/07/14 08:33:14;;;;;;;9.00;2.42;;;33.60;56.20;;;;;;4931408;29;20102;-77
2021/07/14 08:35:40;;;;;;;2.35;2.15;;;34.00;55.40;;;;;;4932199;29;20460;-74
2021/07/14 08:38:08;;;;;;;2.30;1.80;;;34.20;54.60;;;;;;4931956;29;20110;-76
2021/07/14 08:40:35;;;;;;;2.30;2.10;;;34.50;53.70;;;;;;4945931;29;20480;-75
2021/07/14 08:43:02;;;;;;;2.40;2.20;;;34.80;53.10;;;;;;4927540;29;20028;-75
2021/07/14 08:45:28;;;;;;;2.33;2.13;;;35.00;52.30;;;;;;4931266;29;20115;-73
2021/07/14 08:47:54;;;;;;;2.90;2.35;;;35.20;51.70;;;;;;4922525;29;20350;-73
2021/07/14 08:50:21;;;;;;;2.45;2.20;;;35.40;51.10;;;;;;4929811;29;20521;-73
2021/07/14 08:52:49;;;;;;;2.58;2.38;;;35.50;50.60;;;;;;4931145;29;20039;-73
2021/07/14 08:55:17;;;;;;;2.97;2.40;;;35.60;50.20;;;;;;4931252;29;20046;-73
2021/07/14 08:57:44;;;;;;;3.35;2.42;;;35.70;49.70;;;;;;4944692;28;20103;-76
2021/07/14 09:00:14;;;;;;;2.53;2.20;;;35.60;49.40;;;;;;4931377;29;20071;-73
2021/07/14 09:02:41;;;;;;;2.95;2.45;;;35.40;49.50;;;;;;4930636;29;20028;-73
2021/07/14 09:05:08;;;;;;;2.72;2.10;;;35.20;49.50;;;;;;4931324;29;20032;-73
2021/07/14 09:07:38;;;;;;;2.40;2.15;;;35.10;49.30;;;;;;4930570;29;20107;-72
2021/07/14 09:10:12;;;;;;;3.70;2.10;;;35.00;49.30;;;;;;4945386;29;20498;-73
2021/07/14 09:12:45;;;;;;;2.35;2.10;;;34.80;49.30;;;;;;4930254;29;20523;-74
2021/07/14 09:15:15;;;;;;;;;;;34.60;49.60;;;;;;4930094;29;20199;-73
2021/07/14 09:17:48;;;;;;;2.75;2.38;;;34.30;50.80;;;;;;4930132;29;19911;-74
2021/07/14 09:20:25;;;;;;;3.05;2.72;;;33.90;51.10;;;;;;4930681;29;20050;-76
2021/07/14 09:23:16;;;;;;;2.85;2.40;;;33.60;51.50;;;;;;4930398;29;20043;-74
2021/07/14 09:25:52;;;;;;;2.80;2.30;;;33.40;52.00;;;;;;4920352;29;20028;-74
2021/07/14 09:28:21;;;;;;;4.13;2.50;;;33.30;52.20;;;;;;4930215;29;20043;-74
2021/07/14 09:30:57;;;;;;;2.50;2.30;;;33.30;52.20;;;;;;4945523;29;20308;-75
2021/07/14 09:33:23;;;;;;;3.72;2.25;;;33.30;52.10;;;;;;4929065;29;20076;-74
2021/07/14 09:35:52;;;;;;;2.88;2.28;;;33.30;51.90;;;;;;4945468;29;20488;-74
2021/07/14 09:38:29;;;;;;;2.50;2.30;;;33.30;51.80;;;;;;4930323;29;20152;-76
2021/07/14 09:40:59;;;;;;;4.90;2.50;;;33.30;51.80;;;;;;4945350;29;20054;-75
2021/07/14 09:43:29;;;;;;;2.92;2.70;;;33.00;52.10;;;;;;4928550;29;20027;-75
2021/07/14 09:45:57;;;;;;;2.47;2.28;;;32.90;52.40;;;;;;4930530;29;20036;-76
2021/07/14 09:48:38;;;;;;;2.55;2.33;;;32.70;52.40;;;;;;4929563;29;20527;-76
2021/07/14 09:51:16;;;;;;;4.43;2.90;;;32.50;52.70;;;;;;4930318;29;20075;-75
2021/07/14 09:53:48;;;;;;;2.88;2.53;;;32.20;53.10;;;;;;4928730;29;20570;-76
2021/07/14 09:56:23;;;;;;;2.70;2.50;;;31.90;53.50;;;;;;4930100;29;20251;-75
2021/07/14 09:59:10;;;;;;;2.90;2.53;;;31.80;53.80;;;;;;4919312;29;20028;-75
2021/07/14 10:01:49;;;;;;;4.40;2.33;;;31.80;54.10;;;;;;4911520;29;20048;-75
2021/07/14 10:04:28;;;;;;;4.10;2.40;;;31.80;54.00;;;;;;4929121;29;20071;-74
2021/07/14 10:07:08;;;;;;;2.53;2.33;;;31.90;54.00;;;;;;4929474;29;20064;-76
2021/07/14 10:09:35;;;;;;;2.78;2.58;;;31.90;53.90;;;;;;4929156;29;20255;-75
2021/07/14 10:12:35;;;;;;;6.18;2.60;;;32.00;53.90;;;;;;4928221;29;20094;-74
2021/07/14 10:15:13;;;;;;;3.83;2.60;;;31.90;53.10;;;;;;4928188;29;20412;-74
2021/07/14 10:17:39;;;;;;;3.55;2.50;;;31.80;53.30;;;;;;4929912;29;20395;-73
2021/07/14 10:20:37;;;;;;;3.00;2.40;;;31.80;53.40;;;;;;4928595;29;20086;-75
2021/07/14 10:23:05;;;;;;;2.85;2.55;;;31.90;53.50;;;;;;4932422;29;20074;-74
2021/07/14 10:25:32;;;;;;;2.95;2.65;;;31.90;53.40;;;;;;4928903;29;20031;-73
2021/07/14 10:28:00;;;;;;;3.05;2.45;;;32.00;53.30;;;;;;4929398;29;20248;-74
2021/07/14 10:30:27;;;;;;;3.22;2.28;;;32.00;53.20;;;;;;4929920;29;20028;-73
2021/07/14 10:32:55;;;;;;;3.45;2.17;;;32.10;53.10;;;;;;4929486;29;20062;-73
2021/07/14 10:35:24;;;;;;;2.40;1.95;;;32.20;53.10;;;;;;4929485;29;20514;-74
2021/07/14 10:37:54;;;;;;;2.60;2.30;;;32.20;52.90;;;;;;4929299;29;20405;-74
2021/07/14 10:40:22;;;;;;;3.22;2.78;;;32.30;52.90;;;;;;4929950;29;20044;-74
2021/07/14 10:42:50;;;;;;;3.20;2.30;;;32.30;52.80;;;;;;4929278;29;20370;-74
2021/07/14 10:45:18;;;;;;;3.28;2.40;;;32.50;52.80;;;;;;4929535;29;20031;-73
2021/07/14 10:47:50;;;;;;;2.53;2.33;;;32.50;52.70;;;;;;4929353;29;20275;-74
2021/07/14 10:50:18;;;;;;;2.65;2.10;;;32.60;52.60;;;;;;4911848;29;20355;-73
2021/07/14 10:52:45;;;;;;;2.53;2.33;;;32.60;52.50;;;;;;4928367;29;20078;-73
2021/07/14 10:55:22;;;;;;;2.70;2.25;;;32.70;52.40;;;;;;4928864;29;20495;-74
2021/07/14 10:57:50;;;;;;;3.50;2.00;;;32.70;52.30;;;;;;4928941;29;20039;-75
2021/07/14 11:00:17;;;;;;;3.25;2.40;;;32.70;52.40;;;;;;4928364;29;20044;-75
2021/07/14 11:02:46;;;;;;;3.03;2.03;;;32.80;52.50;;;;;;4927942;29;20391;-75
2021/07/14 11:05:14;;;;;;;3.15;2.30;;;32.90;52.40;;;;;;4929265;29;20391;-75
2021/07/14 11:07:43;;;;;;;2.35;2.15;;;32.90;52.20;;;;;;4929591;29;20028;-76
2021/07/14 11:10:25;;;;;;;2.38;2.17;;;32.90;52.30;;;;;;4943441;29;20027;-74
2021/07/14 11:12:52;;;;;;;2.85;1.90;;;32.90;52.30;;;;;;4927967;29;20047;-75
2021/07/14 11:15:34;;;;;;;3.33;2.28;;;32.90;52.40;;;;;;4929093;29;20020;-74
2021/07/14 11:18:29;;;;;;;2.95;2.65;;;32.80;52.40;;;;;;4924862;29;20397;-75
2021/07/14 11:20:59;;;;;;;2.40;1.98;;;32.90;52.60;;;;;;4928998;29;20163;-74
2021/07/14 11:23:28;;;;;;;2.33;2.13;;;33.00;52.50;;;;;;4928207;29;20083;-74
2021/07/14 11:25:59;;;;;;;2.08;1.92;;;33.10;52.30;;;;;;4929085;29;20044;-74
2021/07/14 11:28:27;;;;;;;2.35;2.15;;;33.00;52.20;;;;;;4928600;29;20043;-74
2021/07/14 11:30:58;;;;;;;2.22;2.03;;;33.00;52.40;;;;;;4928088;29;20123;-74
2021/07/14 11:33:33;;;;;;;3.00;2.22;;;32.80;52.40;;;;;;4928592;29;20027;-76
2021/07/14 11:36:01;;;;;;;2.10;1.92;;;32.70;52.60;;;;;;4928686;29;20710;-75
2021/07/14 11:38:50;;;;;;;2.60;2.15;;;32.80;52.70;;;;;;4927171;29;20032;-74
2021/07/14 11:41:24;;;;;;;2.50;2.13;;;32.90;52.60;;;;;;4928353;29;20072;-73
2021/07/14 11:43:55;;;;;;;2.47;2.10;;;32.90;52.60;;;;;;4928937;29;20062;-73
2021/07/14 11:46:27;;;;;;;2.47;2.10;;;33.10;52.40;;;;;;4928147;29;20040;-73
2021/07/14 11:49:08;;;;;;;2.50;2.30;;;33.10;52.20;;;;;;4928236;29;20024;-74
2021/07/14 11:51:37;;;;;;;2.42;2.22;;;33.30;52.10;;;;;;4928314;29;20884;-77
2021/07/14 11:54:23;;;;;;;2.00;1.83;;;33.40;52.10;;;;;;4928321;29;20411;-74
2021/07/14 11:56:51;;;;;;;2.00;1.88;;;33.40;51.90;;;;;;4928506;29;20032;-76
2021/07/14 11:59:27;;;;;;;2.58;2.05;;;33.40;52.10;;;;;;4926355;29;20031;-74
2021/07/14 12:02:02;;;;;;;4.10;2.28;;;33.40;52.60;;;;;;4928664;29;20039;-74
2021/07/14 12:04:29;;;;;;;2.97;2.10;;;33.40;52.10;;;;;;4927566;29;20192;-75
2021/07/14 12:07:07;;;;;;;2.78;2.20;;;33.40;52.10;;;;;;4928373;29;20032;-78
2021/07/14 12:09:40;;;;;;;2.28;2.03;;;33.30;52.10;;;;;;4926612;29;20377;-77
2021/07/14 12:12:07;;;;;;;2.20;2.00;;;33.20;52.40;;;;;;4942688;29;20040;-77
2021/07/14 12:14:40;;;;;;;2.35;1.67;;;33.20;52.60;;;;;;4928760;29;20071;-76
2021/07/14 12:17:17;;;;;;;2.10;1.90;;;33.10;52.50;;;;;;4943416;29;20408;-77
2021/07/14 12:19:45;;;;;;;2.45;2.25;;;33.20;52.60;;;;;;4928362;29;20040;-77
2021/07/14 12:22:25;;;;;;;2.95;1.92;;;33.40;52.60;;;;;;4927984;29;20074;-76
2021/07/14 12:25:00;;;;;;;4.50;2.30;;;33.50;52.40;;;;;;4926805;29;20028;-75
2021/07/14 12:27:35;;;;;;;1.80;1.70;;;33.70;52.30;;;;;;4928355;29;20039;-75
2021/07/14 12:30:07;;;;;;;2.58;1.88;;;33.80;52.10;;;;;;4927750;29;20503;-76
2021/07/14 12:32:57;;;;;;;1.80;1.70;;;34.00;52.00;;;;;;4927186;29;20380;-76
2021/07/14 12:35:23;;;;;;;1.95;1.85;;;34.10;51.90;;;;;;4932293;29;20395;-75
2021/07/14 12:37:51;;;;;;;1.98;1.77;;;34.30;51.80;;;;;;4922769;29;20530;-76
2021/07/14 12:40:23;;;;;;;3.20;1.70;;;34.40;51.60;;;;;;4911824;29;20059;-75
2021/07/14 12:42:51;;;;;;;2.33;2.10;;;34.40;51.40;;;;;;4917205;29;20070;-76
2021/07/14 12:45:28;;;;;;;1.80;1.70;;;34.50;51.30;;;;;;4909155;29;20363;-76
2021/07/14 12:47:55;;;;;;;1.70;1.60;;;34.60;51.30;;;;;;4914016;29;20032;-76
2021/07/14 12:50:26;;;;;;;1.60;1.48;;;34.60;51.20;;;;;;4931168;29;20066;-76
2021/07/14 12:52:57;;;;;;;1.85;1.75;;;34.70;51.10;;;;;;4929543;29;20063;-76
2021/07/14 12:55:24;;;;;;;2.30;2.10;;;34.80;51.10;;;;;;4931683;29;20027;-76
2021/07/14 12:57:53;;;;;;;2.20;2.00;;;34.90;51.00;;;;;;4931292;29;20042;-77
2021/07/14 13:00:21;;;;;;;2.05;1.70;;;35.00;51.50;;;;;;4931456;29;20039;-77
2021/07/14 13:02:51;;;;;;;4.22;2.25;;;35.10;50.70;;;;;;4930132;29;20176;-77
2021/07/14 13:05:19;;;;;;;3.00;1.58;;;35.20;50.60;;;;;;4931327;29;20035;-76
2021/07/14 13:07:54;;;;;;;1.92;1.83;;;35.30;50.50;;;;;;4929767;29;20034;-78
2021/07/14 13:10:24;;;;;;;2.00;1.70;;;35.40;50.40;;;;;;4927014;29;20036;-76